Launceston Airport
YMLT : now visible

Airfield :











YOU CAN JOIN US ON...

 
LOGIN :

Register | Disclaimer

   EN    FR    IT 

 









Legend :    VFR   Marginal VFR   IFR   Intensive IFR   Very Intensive IFR
Visi :
Ceiling :
>= 8 km
>= 3000ft
5 to 8 km
1000 to 3000 ft
1500m to 5 km
500 to 1000 ft
800 to 1500m
200 to 500 ft
< 800m
< 200 ft
Symbols :   Thunderstorms  Fog  Heavy snow  Heavy precipitations  Wind > 20 kt






- Airport Elevation : 562 ft
- IATA code : LST


YMLT - Launceston

CURRENT METAR :
  • 171300Z AUTO 35009KT 9999 // NCD 12/10 Q1008

EXPIRED METARs :
  • 171230Z AUTO 34009KT 9999 // NCD 12/10 Q1008 RF00.0/000.0
  • 171200Z AUTO 35010KT 9999 // SCT047 12/10 Q1009 RF00.0/000.0
  • 171130Z AUTO 34009KT 9999 // NCD 12/10 Q1009 RF00.0/000.0
  • 171100Z AUTO 32013KT 9999 // SCT058 13/10 Q1009 RF00.0/000.0
  • 171030Z AUTO 32015KT 9999 // BKN060 13/10 Q1009 RF00.0/000.0

TAF TAF YMLT
Valid from the 17 at 12:00 until the 18 at 12:00 UTC


171105Z 1712/1812 33012KT 9999 SCT040
FM172200 29020G30KT 9999 FEW040
FM180900 20014KT 9999 FEW045
YMMM FIR / Oceania



MET'MAP, your aeronautical weather chart ! - Copyright ORBIFLY December 2007 - Disclaimer

ORBIFLY MET'MAP TEAM :

Programming & Development : Alexandra Zaïnal
Concept & original design : Baudouin d'Aumeries
Assistance for programming : Marc-Olivier Méhu
Technical & hardware support : Manuel Goepfert

Contact : metmap@orbifly.com




SOURCES & CREDITS :

   NOAA       Earth
Advisory